Time;durP1;ratioP1;P1;durP2;ratioP2;P2;SDS_P1;SDS_P2;PMS_P1;PMS_P2;Temp;Humidity;BMP_temperature;BMP_pressure;BME280_temperature;BME280_humidity;BME280_pressure;Samples;Min_cycle;Max_cycle;Signal;HPM_P1;HPM_P2
2021/09/01 00:02:21;;;;;;;7.65;5.97;;;11.60;99.90;;;;;;1889397;76;21147;-78
2021/09/01 00:04:47;;;;;;;10.10;6.25;;;11.60;99.90;;;;;;1889376;76;21068;-77
2021/09/01 00:07:14;;;;;;;7.28;6.05;;;11.50;99.90;;;;;;1889107;76;21068;-78
2021/09/01 00:09:40;;;;;;;6.08;5.50;;;11.40;99.90;;;;;;1889265;76;21072;-77
2021/09/01 00:12:06;;;;;;;8.10;5.60;;;11.40;99.90;;;;;;1889133;76;21413;-77
2021/09/01 00:14:32;;;;;;;8.68;5.70;;;11.50;99.90;;;;;;1889321;75;21529;-77
2021/09/01 00:16:58;;;;;;;6.47;5.62;;;11.50;99.90;;;;;;1889095;76;21133;-77
2021/09/01 00:19:24;;;;;;;10.90;6.40;;;11.50;99.90;;;;;;1889282;76;21068;-77
2021/09/01 00:21:50;;;;;;;8.23;6.22;;;11.50;99.90;;;;;;1889094;76;21084;-77
2021/09/01 00:24:17;;;;;;;7.03;6.33;;;11.50;99.90;;;;;;1889272;76;21077;-77
2021/09/01 00:26:43;;;;;;;8.10;6.50;;;11.50;99.90;;;;;;1889122;76;21067;-77
2021/09/01 00:29:09;;;;;;;8.23;6.55;;;11.50;99.90;;;;;;1889296;75;21072;-77
2021/09/01 00:31:35;;;;;;;13.83;7.03;;;11.50;99.90;;;;;;1889060;75;21123;-77
2021/09/01 00:34:01;;;;;;;17.17;6.58;;;11.40;99.90;;;;;;1889298;76;21105;-77
2021/09/01 00:36:27;;;;;;;7.55;6.40;;;11.40;99.90;;;;;;1895662;75;21157;-77
2021/09/01 00:38:53;;;;;;;10.90;7.15;;;11.40;99.90;;;;;;1889364;76;21097;-77
2021/09/01 00:41:19;;;;;;;9.18;6.75;;;11.40;99.90;;;;;;1889356;75;21101;-77
2021/09/01 00:43:46;;;;;;;7.00;6.30;;;11.40;99.90;;;;;;1889368;75;21198;-77
2021/09/01 00:46:12;;;;;;;12.78;6.45;;;11.40;99.90;;;;;;1889400;75;21105;-77
2021/09/01 00:48:38;;;;;;;7.28;6.55;;;11.30;99.90;;;;;;1890851;75;21053;-78
2021/09/01 00:51:04;;;;;;;8.03;6.20;;;11.30;99.90;;;;;;1889100;76;21068;-77
2021/09/01 00:53:30;;;;;;;11.78;7.08;;;11.20;99.90;;;;;;1892504;75;21084;-77
2021/09/01 00:55:56;;;;;;;10.48;7.67;;;11.20;99.90;;;;;;1889121;75;21122;-77
2021/09/01 00:58:23;;;;;;;7.83;7.05;;;11.20;99.90;;;;;;1896127;75;21071;-77
2021/09/01 01:03:33;;;;;;;9.65;7.65;;;11.30;99.90;;;;;;1889057;76;21102;-77
2021/09/01 01:05:59;;;;;;;13.45;8.03;;;11.30;99.90;;;;;;1907662;75;21150;-77
2021/09/01 01:08:25;;;;;;;15.58;7.85;;;11.20;99.90;;;;;;1889079;76;21504;-77
2021/09/01 01:10:51;;;;;;;11.80;9.18;;;11.20;99.90;;;;;;1889230;76;21489;-77
2021/09/01 01:13:17;;;;;;;10.23;7.92;;;11.20;99.90;;;;;;1889101;76;21161;-77
2021/09/01 01:15:43;;;;;;;13.95;8.23;;;11.40;99.90;;;;;;1889279;75;21075;-77
2021/09/01 01:18:10;;;;;;;8.10;7.25;;;11.50;99.90;;;;;;1889040;76;21052;-77
2021/09/01 01:20:36;;;;;;;9.90;7.75;;;11.60;99.90;;;;;;1889312;76;21100;-78
2021/09/01 01:23:02;;;;;;;7.85;6.65;;;11.60;99.90;;;;;;1889068;75;21145;-77
2021/09/01 01:25:28;;;;;;;9.10;7.12;;;11.70;99.90;;;;;;1889295;76;21188;-77
2021/09/01 01:27:54;;;;;;;8.15;7.28;;;11.80;99.90;;;;;;1889117;76;21071;-78
2021/09/01 01:30:20;;;;;;;8.05;6.55;;;11.80;99.90;;;;;;1889230;75;21083;-79
2021/09/01 01:32:46;;;;;;;8.93;6.22;;;11.90;99.90;;;;;;1889241;76;21048;-78
2021/09/01 01:35:12;;;;;;;8.63;7.33;;;11.90;99.90;;;;;;1889163;76;21138;-78
2021/09/01 01:37:39;;;;;;;11.03;7.70;;;11.90;99.90;;;;;;1889199;75;21048;-76
2021/09/01 01:40:05;;;;;;;9.25;7.97;;;11.90;99.90;;;;;;1889263;76;21093;-77
2021/09/01 01:42:31;;;;;;;16.12;8.60;;;11.90;99.90;;;;;;1889065;75;21196;-76
2021/09/01 01:44:57;;;;;;;14.93;9.13;;;11.90;99.90;;;;;;1889196;76;21048;-77
2021/09/01 01:47:23;;;;;;;15.10;8.83;;;11.90;99.90;;;;;;1889142;76;21052;-76
2021/09/01 01:49:49;;;;;;;12.23;9.43;;;12.10;99.90;;;;;;1889133;76;21626;-76
2021/09/01 01:52:15;;;;;;;14.98;9.68;;;12.10;99.90;;;;;;1889026;76;21484;-76
2021/09/01 01:54:41;;;;;;;14.78;10.10;;;12.10;99.90;;;;;;1889253;75;21527;-77
2021/09/01 01:57:08;;;;;;;14.23;9.68;;;12.00;99.90;;;;;;1889233;76;21460;-76
2021/09/01 01:59:34;;;;;;;13.20;9.15;;;11.90;99.90;;;;;;1889147;76;21512;-77
2021/09/01 02:02:00;;;;;;;15.68;10.18;;;11.90;99.90;;;;;;1889308;76;21451;-77
2021/09/01 02:04:26;;;;;;;19.75;10.38;;;12.00;99.90;;;;;;1889107;76;21504;-76
2021/09/01 02:06:52;;;;;;;29.57;11.38;;;12.10;99.90;;;;;;1889105;76;21153;-77
2021/09/01 02:09:18;;;;;;;17.85;11.33;;;12.00;99.90;;;;;;1889335;76;21049;-77
2021/09/01 02:11:44;;;;;;;21.37;11.30;;;12.00;99.90;;;;;;1889142;76;21076;-77
2021/09/01 02:14:10;;;;;;;17.95;11.70;;;11.90;99.90;;;;;;1889155;76;21197;-77
2021/09/01 02:16:37;;;;;;;14.38;11.05;;;11.90;99.90;;;;;;1889235;76;21021;-77
2021/09/01 02:19:03;;;;;;;19.42;12.47;;;11.90;99.90;;;;;;1889153;76;21072;-77
2021/09/01 02:21:29;;;;;;;53.10;12.37;;;11.90;99.90;;;;;;1889104;75;21075;-77
2021/09/01 02:23:55;;;;;;;86.17;13.30;;;11.90;99.90;;;;;;1889110;76;21048;-77
2021/09/01 02:26:21;;;;;;;78.55;14.43;;;11.80;99.90;;;;;;1889136;76;21181;-77
2021/09/01 02:28:47;;;;;;;26.25;12.95;;;11.80;99.90;;;;;;1889160;76;21072;-77
2021/09/01 02:31:13;;;;;;;21.17;14.13;;;11.90;99.90;;;;;;1889140;75;21045;-77
2021/09/01 02:33:39;;;;;;;28.45;12.50;;;11.90;99.90;;;;;;1889157;75;21072;-77
2021/09/01 02:36:06;;;;;;;17.25;12.70;;;11.90;99.90;;;;;;1889145;76;21072;-77
2021/09/01 02:38:32;;;;;;;60.15;14.05;;;11.90;99.90;;;;;;1889149;76;21056;-77
2021/09/01 02:40:58;;;;;;;25.92;11.70;;;11.90;99.90;;;;;;1889108;76;21076;-76
2021/09/01 02:43:24;;;;;;;26.33;11.78;;;12.00;99.90;;;;;;1889173;76;21141;-77
2021/09/01 02:45:50;;;;;;;30.80;11.88;;;12.00;99.90;;;;;;1889236;76;21049;-76
2021/09/01 02:48:16;;;;;;;26.15;11.93;;;11.90;99.90;;;;;;1889220;76;21138;-77
2021/09/01 02:50:42;;;;;;;78.40;13.13;;;11.90;99.90;;;;;;1889201;76;21138;-77
2021/09/01 02:53:08;;;;;;;74.10;12.98;;;11.80;99.90;;;;;;1889226;75;21048;-76
2021/09/01 02:55:35;;;;;;;19.35;12.65;;;11.80;99.90;;;;;;1889216;76;21149;-76
2021/09/01 02:58:01;;;;;;;15.43;11.88;;;11.80;99.90;;;;;;1889234;76;21080;-77
2021/09/01 03:00:27;;;;;;;44.25;13.20;;;11.80;99.90;;;;;;1889079;76;21017;-77
2021/09/01 03:02:53;;;;;;;13.85;10.88;;;11.80;99.90;;;;;;1889083;76;21138;-77
2021/09/01 03:08:03;;;;;;;52.78;11.03;;;11.80;99.90;;;;;;1913782;75;21106;-77
2021/09/01 03:10:29;;;;;;;47.33;11.03;;;11.70;99.90;;;;;;1889081;76;21069;-77
2021/09/01 03:12:55;;;;;;;35.63;11.22;;;11.70;99.90;;;;;;1889058;76;21045;-77
2021/09/01 03:15:22;;;;;;;55.43;11.28;;;11.70;99.90;;;;;;1889081;76;21181;-76
2021/09/01 03:17:48;;;;;;;48.60;11.50;;;11.70;99.90;;;;;;1877039;76;21057;-76
2021/09/01 03:20:14;;;;;;;32.48;11.70;;;11.60;99.90;;;;;;1901804;75;21153;-77
2021/09/01 03:22:40;;;;;;;86.85;11.80;;;11.60;99.90;;;;;;1889077;76;21072;-76
2021/09/01 03:25:06;;;;;;;52.55;11.60;;;11.60;99.90;;;;;;1901103;75;21158;-77
2021/09/01 03:27:32;;;;;;;56.50;11.73;;;11.50;99.90;;;;;;1889310;76;21076;-76
2021/09/01 03:29:58;;;;;;;48.50;12.35;;;11.50;99.90;;;;;;1889092;76;21143;-77
2021/09/01 03:32:24;;;;;;;36.25;13.35;;;11.50;99.90;;;;;;1889211;75;21045;-77
2021/09/01 03:34:50;;;;;;;37.70;13.20;;;11.60;99.90;;;;;;1889271;76;21076;-76
2021/09/01 03:37:17;;;;;;;16.93;11.85;;;11.60;99.90;;;;;;1889280;76;21068;-76
2021/09/01 03:39:43;;;;;;;40.38;12.43;;;11.50;99.90;;;;;;1889288;76;21072;-76
2021/09/01 03:42:09;;;;;;;28.17;12.55;;;11.50;99.90;;;;;;1889299;76;21122;-77
2021/09/01 03:44:35;;;;;;;103.12;14.07;;;11.60;99.90;;;;;;1889281;75;21076;-77
2021/09/01 03:47:01;;;;;;;43.80;13.08;;;11.50;99.90;;;;;;1889291;76;21072;-77
2021/09/01 03:49:27;;;;;;;53.87;14.33;;;11.50;99.90;;;;;;1889197;76;21049;-77
2021/09/01 03:51:53;;;;;;;53.00;15.18;;;11.50;99.90;;;;;;1889283;76;21076;-77
2021/09/01 03:54:19;;;;;;;40.80;15.75;;;11.50;99.90;;;;;;1889275;76;21079;-77
2021/09/01 03:56:46;;;;;;;21.73;14.93;;;11.50;99.90;;;;;;1889251;76;21076;-77
2021/09/01 03:59:12;;;;;;;73.40;15.80;;;11.60;99.90;;;;;;1889240;75;21185;-77
2021/09/01 04:01:38;;;;;;;40.98;15.98;;;11.50;99.90;;;;;;1889080;76;21072;-77
2021/09/01 04:04:04;;;;;;;38.60;14.55;;;11.50;99.90;;;;;;1889306;76;21504;-76
2021/09/01 04:06:31;;;;;;;70.47;14.30;;;11.60;99.90;;;;;;1889085;76;21524;-77
2021/09/01 04:08:57;;;;;;;49.45;15.18;;;11.60;99.90;;;;;;1889465;76;21511;-76
2021/09/01 04:11:23;;;;;;;54.33;14.65;;;11.50;99.90;;;;;;1889093;76;21079;-77
2021/09/01 04:13:49;;;;;;;87.12;14.63;;;11.60;99.90;;;;;;1889295;76;21105;-77
2021/09/01 04:16:15;;;;;;;44.77;14.60;;;11.60;99.90;;;;;;1889109;76;21045;-77
2021/09/01 04:18:41;;;;;;;31.45;14.63;;;11.50;99.90;;;;;;1889266;76;21104;-77
2021/09/01 04:21:07;;;;;;;53.63;16.05;;;11.50;99.90;;;;;;1889193;76;21110;-77
2021/09/01 04:23:33;;;;;;;52.85;14.87;;;11.50;99.90;;;;;;1889150;76;21052;-77
2021/09/01 04:26:00;;;;;;;38.48;14.00;;;11.40;99.90;;;;;;1889272;76;21079;-77
2021/09/01 04:28:26;;;;;;;73.87;13.60;;;11.40;99.90;;;;;;1889321;76;21221;-77
2021/09/01 04:30:52;;;;;;;67.37;14.87;;;11.40;99.90;;;;;;1889098;75;21189;-77
2021/09/01 04:33:18;;;;;;;42.20;13.05;;;11.40;99.90;;;;;;1889354;76;21172;-77
2021/09/01 04:35:44;;;;;;;34.15;15.10;;;11.40;99.90;;;;;;1889189;75;21113;-77
2021/09/01 04:38:10;;;;;;;64.97;14.75;;;11.40;99.90;;;;;;1889269;76;21111;-77
2021/09/01 04:40:36;;;;;;;30.97;14.68;;;11.40;99.90;;;;;;1889071;76;21118;-76
2021/09/01 04:43:02;;;;;;;54.20;13.22;;;11.40;99.90;;;;;;1889267;76;21141;-76
2021/09/01 04:45:29;;;;;;;27.20;13.85;;;11.40;99.90;;;;;;1889049;76;21143;-74
2021/09/01 04:47:55;;;;;;;180.20;14.30;;;11.40;99.90;;;;;;1889491;76;21158;-74
2021/09/01 04:50:21;;;;;;;85.45;14.00;;;11.30;99.90;;;;;;1889188;76;21088;-75
2021/09/01 04:52:47;;;;;;;41.60;13.70;;;11.30;99.90;;;;;;1889341;76;21072;-77
2021/09/01 04:55:15;;;;;;;69.65;16.00;;;11.30;99.90;;;;;;1889070;76;21048;-76
2021/09/01 04:57:41;;;;;;;83.85;13.83;;;11.30;99.90;;;;;;1889216;76;21099;-77
2021/09/01 05:00:07;;;;;;;118.25;14.73;;;11.40;99.90;;;;;;1889262;76;21079;-77
2021/09/01 05:02:33;;;;;;;88.70;14.18;;;11.30;99.90;;;;;;1889248;76;21021;-77
2021/09/01 05:05:00;;;;;;;136.68;15.48;;;11.40;99.90;;;;;;1889046;76;21135;-76
2021/09/01 05:07:26;;;;;;;46.00;15.45;;;11.30;99.90;;;;;;1889143;76;21546;-78
2021/09/01 05:09:52;;;;;;;80.92;15.20;;;11.40;99.90;;;;;;1889173;76;21461;-78
2021/09/01 05:12:18;;;;;;;46.45;16.57;;;11.40;99.90;;;;;;1889153;76;21541;-77
2021/09/01 05:14:44;;;;;;;57.58;15.70;;;11.40;99.90;;;;;;1889465;76;21581;-77
2021/09/01 05:17:10;;;;;;;110.30;13.95;;;11.40;99.90;;;;;;1889295;76;21417;-77
2021/09/01 05:19:37;;;;;;;56.10;16.67;;;11.40;99.90;;;;;;1889178;76;21553;-77
2021/09/01 05:22:03;;;;;;;70.40;15.72;;;11.40;99.90;;;;;;1889162;75;21096;-76
2021/09/01 05:24:29;;;;;;;52.65;14.50;;;11.40;99.90;;;;;;1889255;76;21052;-76
2021/09/01 05:26:56;;;;;;;68.62;15.13;;;11.40;99.90;;;;;;1889088;76;21076;-75
2021/09/01 05:29:22;;;;;;;29.87;14.65;;;11.40;99.90;;;;;;1889281;75;21224;-75
2021/09/01 05:31:48;;;;;;;82.45;15.32;;;11.40;99.90;;;;;;1889217;76;21048;-77
2021/09/01 05:34:14;;;;;;;55.33;15.90;;;11.40;99.90;;;;;;1889178;76;21076;-76
2021/09/01 05:36:40;;;;;;;77.42;16.15;;;11.40;99.90;;;;;;1889160;75;21044;-76
2021/09/01 05:39:06;;;;;;;33.38;14.93;;;11.50;99.90;;;;;;1891698;75;21045;-76
2021/09/01 05:41:32;;;;;;;37.45;14.47;;;11.50;99.90;;;;;;1891815;75;21145;-76
2021/09/01 05:43:58;;;;;;;68.70;17.52;;;11.50;99.90;;;;;;1903631;75;21087;-78
2021/09/01 05:46:25;;;;;;;67.60;16.52;;;11.50;99.90;;;;;;1912773;75;21044;-77
2021/09/01 05:48:51;;;;;;;46.37;15.08;;;11.50;99.90;;;;;;1915590;75;21075;-77
2021/09/01 05:51:17;;;;;;;52.85;15.63;;;11.60;99.90;;;;;;1896337;73;21167;-77
2021/09/01 05:53:43;;;;;;;37.63;15.00;;;11.60;99.90;;;;;;1892896;75;21118;-77
2021/09/01 05:56:09;;;;;;;26.90;14.80;;;11.60;99.90;;;;;;1888911;76;21088;-77
2021/09/01 05:58:36;;;;;;;34.00;14.83;;;11.60;99.90;;;;;;1889165;76;21166;-77
2021/09/01 06:01:02;;;;;;;32.38;13.78;;;11.70;99.90;;;;;;1916848;75;21079;-77
2021/09/01 06:03:28;;;;;;;29.77;15.55;;;11.60;99.90;;;;;;1897427;75;21067;-77
2021/09/01 06:05:54;;;;;;;39.58;14.40;;;11.60;99.90;;;;;;1901819;74;21157;-77
2021/09/01 06:08:20;;;;;;;16.30;12.88;;;11.60;99.90;;;;;;1888965;76;21073;-77
2021/09/01 06:10:46;;;;;;;21.90;13.90;;;11.70;99.90;;;;;;1889121;76;21068;-76
2021/09/01 06:13:13;;;;;;;34.18;13.40;;;11.80;99.90;;;;;;1888934;76;21111;-77
2021/09/01 06:15:39;;;;;;;23.15;14.78;;;11.80;99.90;;;;;;1888994;76;21073;-77
2021/09/01 06:18:05;;;;;;;60.40;13.10;;;11.80;99.90;;;;;;1889141;76;21076;-77
2021/09/01 06:20:31;;;;;;;44.15;14.68;;;11.60;99.90;;;;;;1888983;76;21145;-76
2021/09/01 06:22:57;;;;;;;23.77;15.28;;;11.60;99.90;;;;;;1889136;76;21064;-76
2021/09/01 06:25:23;;;;;;;30.00;17.35;;;11.80;99.90;;;;;;1888904;75;21091;-77
2021/09/01 06:27:49;;;;;;;33.45;18.62;;;11.80;99.90;;;;;;1889112;76;21040;-76
2021/09/01 06:30:15;;;;;;;40.80;19.82;;;11.90;99.90;;;;;;1888904;75;21067;-77
2021/09/01 06:32:42;;;;;;;30.82;18.85;;;12.00;99.90;;;;;;1889225;76;21100;-77
2021/09/01 06:35:08;;;;;;;37.80;18.20;;;12.00;99.90;;;;;;1888934;76;21045;-76
2021/09/01 06:37:34;;;;;;;35.73;16.93;;;12.10;99.90;;;;;;1889071;76;21072;-76
2021/09/01 06:40:00;;;;;;;61.65;18.50;;;12.10;99.90;;;;;;1888918;76;21068;-77
2021/09/01 06:42:26;;;;;;;28.65;17.32;;;12.00;99.90;;;;;;1889105;76;21045;-76
2021/09/01 06:44:53;;;;;;;51.42;18.52;;;12.10;99.90;;;;;;1889005;75;21119;-76
2021/09/01 06:47:19;;;;;;;59.83;18.15;;;12.00;99.90;;;;;;1889125;76;21068;-77
2021/09/01 06:49:45;;;;;;;59.75;17.15;;;12.10;99.90;;;;;;1888927;76;21076;-77
2021/09/01 06:52:11;;;;;;;42.80;19.30;;;11.90;99.90;;;;;;1889076;76;21067;-78
2021/09/01 06:54:37;;;;;;;38.80;19.98;;;11.90;99.90;;;;;;1888950;76;21149;-77
2021/09/01 06:57:03;;;;;;;39.48;19.52;;;12.00;99.90;;;;;;1889122;76;21139;-77
2021/09/01 06:59:29;;;;;;;50.33;18.30;;;12.00;99.90;;;;;;1888959;76;21051;-78
2021/09/01 07:01:55;;;;;;;61.42;18.62;;;12.00;99.90;;;;;;1889145;76;21115;-77
2021/09/01 07:04:22;;;;;;;37.53;18.77;;;12.00;99.90;;;;;;1889006;76;21092;-77
2021/09/01 07:06:48;;;;;;;36.28;19.10;;;12.10;99.90;;;;;;1889033;76;21496;-77
2021/09/01 07:09:14;;;;;;;38.15;17.67;;;12.20;99.90;;;;;;1889160;75;21573;-76
2021/09/01 07:11:40;;;;;;;30.90;17.02;;;12.30;99.90;;;;;;1889131;76;21547;-76
2021/09/01 07:14:06;;;;;;;33.67;15.38;;;12.40;99.90;;;;;;1889260;76;21516;-76
2021/09/01 07:16:32;;;;;;;25.80;16.42;;;12.50;99.90;;;;;;1889186;76;21169;-76
2021/09/01 07:18:58;;;;;;;25.68;15.32;;;12.60;99.90;;;;;;1888987;75;21067;-76
2021/09/01 07:21:25;;;;;;;28.07;15.58;;;12.60;99.90;;;;;;1889173;76;21041;-76
2021/09/01 07:23:51;;;;;;;18.48;14.07;;;12.60;99.90;;;;;;1889140;76;21071;-76
2021/09/01 07:26:17;;;;;;;22.07;14.58;;;12.60;99.90;;;;;;1889282;76;21075;-76
2021/09/01 07:28:43;;;;;;;21.80;13.55;;;12.70;99.90;;;;;;1889226;75;21088;-76
2021/09/01 07:31:09;;;;;;;17.32;11.50;;;12.70;99.90;;;;;;1889245;76;21093;-76
2021/09/01 07:33:37;;;;;;;17.40;12.15;;;12.70;99.90;;;;;;1889314;75;21097;-76
2021/09/01 07:36:03;;;;;;;15.45;11.78;;;12.80;99.90;;;;;;1889159;76;21185;-76
2021/09/01 07:38:29;;;;;;;14.18;10.88;;;12.70;99.90;;;;;;1889355;76;21079;-77
2021/09/01 07:40:55;;;;;;;13.35;11.55;;;12.90;99.90;;;;;;1889379;76;21040;-77
2021/09/01 07:43:25;;;;;;;13.80;11.28;;;13.20;99.90;;;;;;1889316;76;21134;-77
2021/09/01 07:45:49;;;;;;;13.08;11.50;;;13.20;99.90;;;;;;1889001;75;21119;-77
2021/09/01 07:48:15;;;;;;;27.87;11.83;;;13.50;99.90;;;;;;1889377;75;21093;-77
2021/09/01 07:50:41;;;;;;;15.70;11.68;;;13.40;99.90;;;;;;1889400;76;21099;-78
2021/09/01 07:53:07;;;;;;;14.40;11.48;;;13.40;99.90;;;;;;1889346;76;21086;-77
2021/09/01 07:55:33;;;;;;;14.90;11.25;;;13.50;99.90;;;;;;1889421;76;21128;-76
2021/09/01 07:57:59;;;;;;;14.18;12.07;;;13.60;99.90;;;;;;1889495;76;21097;-77
2021/09/01 08:00:26;;;;;;;15.75;11.80;;;13.60;99.90;;;;;;1889327;76;21072;-76
2021/09/01 08:02:52;;;;;;;12.85;11.33;;;13.60;99.90;;;;;;1889441;75;21044;-77
2021/09/01 08:05:19;;;;;;;14.38;11.43;;;13.70;99.90;;;;;;1894306;75;21087;-77
2021/09/01 08:07:45;;;;;;;16.02;11.65;;;13.90;99.90;;;;;;1890203;75;21072;-76
2021/09/01 08:10:11;;;;;;;13.98;11.30;;;14.00;99.90;;;;;;1905986;74;21056;-77
2021/09/01 08:12:37;;;;;;;13.55;10.98;;;13.80;99.90;;;;;;1891078;75;21170;-75
2021/09/01 08:15:03;;;;;;;23.05;11.78;;;14.00;99.90;;;;;;1889150;76;21228;-76
2021/09/01 08:17:29;;;;;;;12.63;10.78;;;14.10;99.90;;;;;;1889134;76;21072;-77
2021/09/01 08:19:56;;;;;;;19.65;12.00;;;14.30;99.90;;;;;;1889101;76;21072;-76
2021/09/01 08:22:22;;;;;;;15.85;11.90;;;14.00;99.90;;;;;;1893185;73;21080;-77
2021/09/01 08:24:48;;;;;;;16.57;12.88;;;13.90;99.90;;;;;;1909580;75;21075;-76
2021/09/01 08:27:14;;;;;;;15.55;11.45;;;13.70;99.90;;;;;;1895036;75;21053;-76
2021/09/01 08:29:40;;;;;;;17.10;13.03;;;13.80;99.90;;;;;;1889304;76;21104;-77
2021/09/01 08:32:06;;;;;;;15.40;12.75;;;13.80;99.90;;;;;;1889088;76;21075;-76
2021/09/01 08:34:32;;;;;;;13.88;11.53;;;13.80;99.90;;;;;;1889199;76;21384;-76
2021/09/01 08:37:00;;;;;;;15.48;11.95;;;14.10;99.90;;;;;;1889091;76;21102;-77
2021/09/01 08:39:29;;;;;;;13.75;11.25;;;14.20;99.90;;;;;;1889244;76;21105;-76
2021/09/01 08:41:55;;;;;;;17.50;11.38;;;14.30;99.90;;;;;;1889287;75;21093;-77
2021/09/01 08:44:21;;;;;;;11.90;10.58;;;14.20;99.90;;;;;;1888957;76;21078;-77
2021/09/01 08:46:49;;;;;;;12.50;11.18;;;14.40;99.90;;;;;;1889208;76;21072;-77
2021/09/01 08:49:15;;;;;;;14.35;10.93;;;14.70;99.90;;;;;;1888984;75;21441;-77
2021/09/01 08:51:41;;;;;;;10.78;9.63;;;15.10;99.90;;;;;;1889235;75;21586;-77
2021/09/01 08:54:08;;;;;;;11.85;9.45;;;15.30;99.90;;;;;;1889008;76;21539;-76
2021/09/01 08:56:34;;;;;;;13.78;11.63;;;15.50;99.90;;;;;;1889191;75;21116;-76
2021/09/01 08:59:00;;;;;;;14.13;9.88;;;15.30;99.90;;;;;;1889233;76;21178;-76
2021/09/01 09:01:26;;;;;;;102.47;17.62;;;15.10;99.90;;;;;;1889312;76;21101;-76
2021/09/01 09:03:52;;;;;;;15.40;10.25;;;15.30;99.90;;;;;;1889306;76;21089;-77
2021/09/01 09:06:18;;;;;;;13.15;9.13;;;15.60;99.90;;;;;;1889153;76;21125;-77
2021/09/01 09:08:44;;;;;;;13.13;8.95;;;15.80;99.90;;;;;;1889241;76;21101;-77
2021/09/01 09:11:11;;;;;;;9.28;7.85;;;16.00;99.90;;;;;;1889267;76;21048;-77
2021/09/01 09:13:37;;;;;;;11.22;9.20;;;16.40;99.90;;;;;;1889442;76;21137;-77
2021/09/01 09:16:03;;;;;;;10.60;8.55;;;16.80;99.90;;;;;;1889064;76;21123;-77
2021/09/01 09:18:29;;;;;;;9.58;8.58;;;16.80;99.90;;;;;;1889215;76;21512;-77
2021/09/01 09:20:55;;;;;;;9.60;8.38;;;17.20;99.90;;;;;;1889341;76;21590;-76
2021/09/01 09:23:22;;;;;;;9.38;8.25;;;17.10;99.90;;;;;;1889756;76;21103;-78
2021/09/01 09:25:48;;;;;;;13.25;8.18;;;17.60;99.90;;;;;;1890767;76;21083;-77
2021/09/01 09:28:15;;;;;;;8.00;7.30;;;17.90;99.90;;;;;;1891815;76;21091;-76
2021/09/01 09:30:41;;;;;;;10.58;8.08;;;17.80;99.90;;;;;;1890984;76;21083;-76
2021/09/01 09:33:07;;;;;;;9.93;7.22;;;17.80;99.90;;;;;;1889161;76;21496;-76
2021/09/01 09:35:33;;;;;;;9.80;7.72;;;17.60;99.90;;;;;;1889010;75;21096;-76
2021/09/01 09:37:59;;;;;;;12.50;7.50;;;17.60;99.90;;;;;;1889031;76;21052;-76
2021/09/01 09:40:25;;;;;;;8.23;6.80;;;17.60;99.90;;;;;;1889221;76;21104;-76
2021/09/01 09:42:51;;;;;;;9.10;7.00;;;18.40;99.90;;;;;;1889002;76;21076;-76
2021/09/01 09:45:18;;;;;;;9.40;6.50;;;18.70;99.90;;;;;;1889175;76;21053;-76
2021/09/01 09:47:44;;;;;;;8.40;6.97;;;18.90;99.90;;;;;;1888908;75;21119;-76
2021/09/01 09:50:10;;;;;;;7.30;6.55;;;19.20;99.90;;;;;;1889204;76;21072;-76
2021/09/01 09:52:36;;;;;;;9.10;6.70;;;19.20;99.90;;;;;;1888926;76;21071;-77
2021/09/01 09:55:02;;;;;;;8.63;5.72;;;19.70;99.90;;;;;;1889208;76;21116;-76
2021/09/01 09:57:28;;;;;;;6.97;5.75;;;19.70;99.90;;;;;;1889066;76;21041;-76
2021/09/01 09:59:55;;;;;;;5.97;5.20;;;19.90;99.90;;;;;;1889083;76;21080;-75
2021/09/01 10:02:21;;;;;;;7.67;5.65;;;20.20;99.90;;;;;;1889175;75;21146;-76
2021/09/01 10:04:47;;;;;;;7.75;6.03;;;20.90;99.90;;;;;;1889141;76;21480;-76
2021/09/01 10:07:13;;;;;;;7.50;5.20;;;20.80;99.90;;;;;;1889059;75;21618;-76
2021/09/01 10:09:39;;;;;;;5.70;5.03;;;21.00;99.90;;;;;;1889045;76;21456;-76
2021/09/01 10:12:05;;;;;;;5.17;4.67;;;21.40;99.90;;;;;;1889052;76;21504;-76
2021/09/01 10:14:31;;;;;;;5.50;4.85;;;21.90;99.90;;;;;;1889237;75;21654;-76
2021/09/01 10:16:57;;;;;;;10.58;8.03;;;22.40;99.90;;;;;;1889043;75;21064;-75
2021/09/01 10:19:23;;;;;;;4.00;3.70;;;22.20;99.90;;;;;;1889057;76;21111;-75
2021/09/01 10:21:50;;;;;;;3.85;3.55;;;22.40;99.90;;;;;;1889031;76;21068;-76
2021/09/01 10:24:16;;;;;;;4.95;4.40;;;22.50;99.90;;;;;;1889005;76;21072;-76
2021/09/01 10:26:43;;;;;;;4.22;3.80;;;22.00;99.90;;;;;;1889052;76;21075;-76
2021/09/01 10:29:09;;;;;;;3.25;2.98;;;22.10;99.90;;;;;;1889117;76;21068;-75
2021/09/01 10:31:38;;;;;;;5.35;3.65;;;22.10;99.90;;;;;;1890672;76;21137;-75
2021/09/01 10:34:04;;;;;;;3.10;2.90;;;22.50;99.90;;;;;;1904435;75;21116;-75
2021/09/01 10:36:30;;;;;;;4.42;3.20;;;22.60;99.90;;;;;;1892996;75;21166;-76
2021/09/01 10:38:56;;;;;;;11.75;3.52;;;22.30;99.90;;;;;;1908117;75;21048;-76
2021/09/01 10:41:22;;;;;;;4.53;3.33;;;22.20;99.90;;;;;;1893463;75;21149;-75
2021/09/01 10:43:49;;;;;;;3.65;2.95;;;22.20;99.90;;;;;;1889999;75;21138;-75
2021/09/01 10:46:16;;;;;;;5.50;3.12;;;21.60;99.90;;;;;;1889039;76;21503;-75
2021/09/01 10:48:42;;;;;;;2.92;2.70;;;21.70;99.90;;;;;;1889072;76;21477;-75
2021/09/01 10:51:08;;;;;;;3.50;2.87;;;22.70;99.90;;;;;;1889057;75;21067;-75
2021/09/01 10:53:34;;;;;;;5.03;2.90;;;23.60;99.90;;;;;;1889026;76;21119;-75
2021/09/01 10:56:01;;;;;;;2.75;2.40;;;22.80;99.90;;;;;;1895373;75;21076;-75
2021/09/01 10:58:27;;;;;;;2.70;2.50;;;22.60;99.90;;;;;;1889001;76;21090;-76
2021/09/01 11:00:53;;;;;;;3.92;2.75;;;22.30;99.90;;;;;;1889055;76;21064;-75
2021/09/01 11:03:19;;;;;;;6.28;3.45;;;22.20;99.90;;;;;;1904764;75;21547;-76
2021/09/01 11:05:45;;;;;;;4.42;3.20;;;22.80;99.90;;;;;;1891250;73;21547;-76
2021/09/01 11:08:11;;;;;;;5.12;2.62;;;22.50;99.90;;;;;;1888991;76;21133;-76
2021/09/01 11:10:38;;;;;;;5.78;2.55;;;22.50;99.90;;;;;;1889038;75;21048;-75
2021/09/01 11:13:04;;;;;;;3.17;2.87;;;22.60;99.90;;;;;;1888987;76;21189;-75
2021/09/01 11:15:30;;;;;;;3.62;2.70;;;22.70;99.90;;;;;;1889040;75;21084;-75
2021/09/01 11:17:56;;;;;;;2.85;2.50;;;23.30;99.90;;;;;;1888940;76;21146;-74
2021/09/01 11:20:23;;;;;;;4.50;2.72;;;23.50;99.90;;;;;;1889020;76;21084;-75
2021/09/01 11:22:49;;;;;;;3.05;2.42;;;23.20;99.90;;;;;;1889081;75;21074;-75
2021/09/01 11:25:17;;;;;;;5.22;2.45;;;23.50;99.90;;;;;;1888983;76;21092;-74
2021/09/01 11:27:43;;;;;;;7.22;2.75;;;23.20;99.90;;;;;;1888929;75;21108;-75
2021/09/01 11:30:09;;;;;;;5.30;2.62;;;23.00;99.90;;;;;;1889190;76;21083;-75
2021/09/01 11:32:35;;;;;;;6.47;3.00;;;23.00;99.90;;;;;;1889165;76;21076;-75
2021/09/01 11:35:02;;;;;;;2.83;2.60;;;23.10;99.90;;;;;;1889139;76;21072;-76
2021/09/01 11:37:28;;;;;;;3.00;2.70;;;24.20;99.90;;;;;;1888938;76;21532;-75
2021/09/01 11:39:54;;;;;;;4.30;3.27;;;24.70;99.90;;;;;;1889285;76;21222;-75
2021/09/01 11:42:20;;;;;;;3.30;3.00;;;24.40;99.90;;;;;;1888960;75;21067;-75
2021/09/01 11:44:46;;;;;;;3.12;2.77;;;23.70;99.90;;;;;;1889194;76;21081;-74
2021/09/01 11:47:12;;;;;;;3.10;2.80;;;23.30;99.90;;;;;;1888971;76;21079;-74
2021/09/01 11:49:38;;;;;;;3.47;2.87;;;23.00;99.90;;;;;;1889299;76;21150;-75
2021/09/01 11:52:05;;;;;;;4.00;2.90;;;23.90;99.90;;;;;;1889086;76;21144;-74
2021/09/01 11:54:31;;;;;;;9.13;3.08;;;24.60;99.90;;;;;;1889547;76;21080;-74
2021/09/01 11:56:57;;;;;;;4.35;2.98;;;24.30;99.90;;;;;;1889299;76;21137;-73
2021/09/01 11:59:26;;;;;;;3.65;3.02;;;23.80;99.90;;;;;;1889420;76;21207;-73
2021/09/01 12:01:51;;;;;;;3.92;2.52;;;23.10;99.90;;;;;;1889351;75;21097;-73
2021/09/01 12:04:17;;;;;;;3.67;2.70;;;22.50;99.90;;;;;;1889360;76;21122;-73
2021/09/01 12:06:43;;;;;;;3.72;2.65;;;22.40;99.90;;;;;;1889120;76;21079;-73
2021/09/01 12:09:12;;;;;;;3.30;2.58;;;22.50;99.90;;;;;;1889364;76;21076;-75
2021/09/01 12:11:37;;;;;;;5.90;2.80;;;22.10;99.90;;;;;;1889071;75;21166;-74
2021/09/01 12:14:04;;;;;;;3.17;2.87;;;22.20;99.90;;;;;;1889328;76;21072;-73
2021/09/01 12:16:31;;;;;;;3.90;2.62;;;22.60;99.90;;;;;;1889299;76;21134;-73
2021/09/01 12:18:57;;;;;;;6.53;2.95;;;22.50;99.90;;;;;;1889340;76;21076;-73
2021/09/01 12:21:23;;;;;;;3.15;2.72;;;22.10;99.90;;;;;;1889285;76;21080;-74
2021/09/01 12:23:49;;;;;;;2.35;2.22;;;22.70;99.90;;;;;;1889410;76;21077;-73
2021/09/01 12:26:17;;;;;;;2.90;2.62;;;23.60;99.90;;;;;;1889201;75;21053;-73
2021/09/01 12:28:44;;;;;;;2.70;2.50;;;23.20;99.90;;;;;;1889270;74;21171;-74
2021/09/01 12:31:10;;;;;;;8.73;3.08;;;23.20;99.90;;;;;;1889243;76;21095;-74
2021/09/01 12:33:36;;;;;;;3.62;2.55;;;24.20;99.90;;;;;;1889090;76;21508;-74
2021/09/01 12:36:02;;;;;;;3.75;2.58;;;25.30;99.90;;;;;;1889183;76;21530;-75